• Join FlightAware (Why Join?)
  • Login
  • US Flag 
01:21PM EDT


 

Airport Tracker/Info


-or-


 

Live Flight TrackerFlight Track Log ✈ AWI3755 ✈ 05-May-2013 ✈ KCLT - KAGS

Flight Track Log - Related Links

Times and Time Zones

All times are in EDT time to prevent confusion due to time zone crossing. See the AWI3755 flight status page for this flight to view local times or setup timezone preferences in your user account.

Time Position Orientation Groundspeed Altitude Reporting Facility
EDT Latitude Longitude Course Direction KTS MPH feet Rate Location/Type
06:56PM 35.2289 -80.9572 194° South 158 182 1,600  Level Atlanta Center
06:57PM 35.2608 -80.9789 331° Northwest 204 235 2,600 1,980 Climbing Atlanta Center
06:59PM 34.9936 -81.0729 224° Southwest  Level Estimated
06:59PM 35.1473 -81.0395 172° South  Level Estimated
06:59PM 35.2650 -81.1542 172° South 288 331 7,100  Level Atlanta Center
07:00PM 34.9177 -81.0393 160° South  Level FlightAware Approximate
07:00PM 35.2033 -81.1969 210° Southwest 236 272 9,700  Level Atlanta Center
07:01PM 34.8376 -81.0198 192° South  Level FlightAware Approximate
07:01PM 35.1406 -81.1889 174° South 251 289 11,500  Level Atlanta Center
07:02PM 34.7587 -81.0409 194° South  Level FlightAware Approximate
07:02PM 35.0694 -81.1814 175° South 274 315 12,000  Level Atlanta Center
07:04PM 34.9031 -81.1561 173° South 309 356 12,000  Level Jacksonville Center
07:05PM 34.8278 -81.1450 173° South 289 333 12,000  Level Jacksonville Center
07:06PM 34.7483 -81.1339 173° South 284 327 12,000  Level Jacksonville Center
07:07PM 34.6606 -81.1181 172° South 284 327 12,000  Level Jacksonville Center
07:08PM 34.5833 -81.1097 175° South 290 334 12,000  Level Jacksonville Center
07:09PM 34.5042 -81.1164 184° South 290 334 12,000  Level Jacksonville Center
07:10PM 34.4317 -81.1631 208° Southwest 290 334 12,000  Level Jacksonville Center
07:11PM 34.3617 -81.2197 214° Southwest 302 348 12,000  Level Jacksonville Center
07:12PM 34.2933 -81.2689 211° Southwest 302 348 12,000  Level Jacksonville Center
07:13PM 34.2253 -81.3228 213° Southwest 297 342 12,000 -480 Level Jacksonville Center
07:14PM 34.1550 -81.3744 211° Southwest 297 342 11,100 -480 Descending Jacksonville Center
07:15PM 34.0844 -81.4283 212° Southwest 297 342 11,100 -60 Level Jacksonville Center
07:16PM 34.0122 -81.4847 213° Southwest 297 342 11,000 -120 Descending Jacksonville Center
07:18PM 33.9372 -81.5396 211° Southwest  Level FlightAware Approximate
07:25PM 33.5451 -81.8162 212° Southwest  Level FlightAware Approximate
07:26PM 33.5000 -81.8641 270° West  Level FlightAware Approximate
07:27PM 33.4420 -81.8957 203° Southwest  Level FlightAware Approximate
07:28PM 33.3862 -81.9354 212° Southwest  Level FlightAware Approximate
07:29PM 33.3667 -81.9500 212° Southwest  Level FlightAware Approximate
07:30PM 33.3699 -81.9645 212° Southwest  Level Estimated